Rechercher aéroport 
image banner adimage banner adimage banner ad
image banner ad

20CA - Clayton

Situé à Blythe, United States

ICAO - 20CA, IATA -

Données fournies par Airmate  

Information générale

Coordonnées: N33°36'13" W114°38'40"
Élévation : 261 feet MSL.
Variation magnétique : 13° East
Voir autres Aéroports à California

Données opérationnelles

Special qualification required
Heure actuelle UTC:
Heure actuelle locale:
Météo à : KBLH - Blythe ( 7 km )
METAR: KBLH 251452Z AUTO 14007KT 10SM CLR 31/19 A2992 RMK AO2 SLP123 T03060194 51013
TAF: KBLH 251120Z 2512/2612 17009KT P6SM SCT080 BKN100 OVC150 FM251700 16013KT P6SM VCSH SCT080 BKN120 FM252300 17010KT P6SM SCT080 BKN120
Voir NOTAMs / SUP AIP / TFR affectant cet aéroport [VIEW]
Fréquences de communication: [VIEW]

Pistes:

Coordonnées de l'aéroport

Adresse: Blythe United States

Vue satellite de 20CA